createdAt,value
2023-01-27T00:00:23.939Z,3.97
2023-01-27T00:02:51.421Z,4.13
2023-01-27T00:05:20.156Z,4.07
2023-01-27T00:07:47.933Z,3.80
2023-01-27T00:10:16.596Z,3.60
2023-01-27T00:13:01.958Z,3.75
2023-01-27T00:15:29.406Z,3.72
2023-01-27T00:17:56.797Z,3.80
2023-01-27T00:20:39.675Z,3.47
2023-01-27T00:23:24.765Z,3.88
2023-01-27T00:25:58.599Z,2.97
2023-01-27T00:28:26.099Z,3.20
2023-01-27T00:30:53.618Z,3.10
2023-01-27T00:33:26.699Z,3.30
2023-01-27T00:35:59.943Z,2.85
2023-01-27T00:38:27.873Z,2.90
2023-01-27T00:41:13.044Z,2.72
2023-01-27T00:43:40.412Z,2.88
2023-01-27T00:46:08.021Z,2.67
2023-01-27T00:48:35.460Z,2.70
2023-01-27T00:51:04.347Z,2.70
2023-01-27T00:53:31.961Z,2.60
2023-01-27T00:55:59.371Z,2.50
2023-01-27T00:58:26.738Z,2.30
2023-01-27T01:00:54.632Z,2.38
2023-01-27T01:03:22.088Z,2.08
2023-01-27T01:05:49.499Z,2.10
2023-01-27T01:08:18.217Z,2.22
2023-01-27T01:10:45.627Z,1.95
2023-01-27T01:13:12.991Z,1.90
2023-01-27T01:15:40.439Z,2.20
2023-01-27T01:18:08.027Z,2.20
2023-01-27T01:20:37.308Z,1.90
2023-01-27T01:23:04.834Z,1.83
2023-01-27T01:25:33.524Z,2.20
2023-01-27T01:28:00.877Z,2.15
2023-01-27T01:30:28.461Z,2.20
2023-01-27T01:32:55.859Z,1.80
2023-01-27T01:35:24.524Z,1.77
2023-01-27T01:37:52.070Z,1.98
2023-01-27T01:40:19.523Z,2.05
2023-01-27T01:42:53.000Z,1.80
2023-01-27T01:45:51.086Z,1.85
2023-01-27T01:48:22.539Z,1.75
2023-01-27T01:50:52.645Z,1.65
2023-01-27T01:53:20.026Z,1.65
2023-01-27T01:55:47.439Z,1.90
2023-01-27T01:58:16.281Z,1.90
2023-01-27T02:00:43.667Z,1.92
2023-01-27T02:03:11.034Z,1.90
2023-01-27T02:05:40.595Z,1.70
2023-01-27T02:08:10.548Z,1.80
2023-01-27T02:10:38.155Z,1.90
2023-01-27T02:13:05.541Z,1.85
2023-01-27T02:15:34.243Z,1.70
2023-01-27T02:18:01.789Z,1.95
2023-01-27T02:20:31.592Z,2.13
2023-01-27T02:23:02.843Z,2.00
2023-01-27T02:25:35.936Z,1.80
2023-01-27T02:28:05.673Z,1.80
2023-01-27T02:30:33.257Z,2.20
2023-01-27T02:33:00.994Z,1.92
2023-01-27T02:35:30.977Z,1.83
2023-01-27T02:37:58.371Z,1.75
2023-01-27T02:40:25.857Z,2.03
2023-01-27T02:42:54.605Z,2.00
2023-01-27T02:45:23.316Z,1.90
2023-01-27T02:47:50.710Z,1.88
2023-01-27T02:50:18.455Z,1.98
2023-01-27T02:52:45.872Z,1.80
2023-01-27T02:55:13.588Z,2.10
2023-01-27T02:57:41.146Z,1.73
2023-01-27T03:00:13.133Z,2.00
2023-01-27T03:02:41.854Z,2.00
2023-01-27T03:05:09.496Z,2.10
2023-01-27T03:07:37.027Z,1.88
2023-01-27T03:10:04.729Z,1.90
2023-01-27T03:12:32.114Z,1.83
2023-01-27T03:15:17.214Z,1.83
2023-01-27T03:18:03.704Z,2.00
2023-01-27T03:20:31.189Z,1.88
2023-01-27T03:22:58.970Z,1.85
2023-01-27T03:25:26.345Z,1.77
2023-01-27T03:27:53.718Z,1.92
2023-01-27T03:30:21.358Z,2.00
2023-01-27T03:32:50.042Z,1.63
2023-01-27T03:35:17.751Z,1.73
2023-01-27T03:38:02.757Z,1.77
2023-01-27T03:40:48.193Z,1.70
2023-01-27T03:43:32.970Z,1.65
2023-01-27T03:46:22.161Z,1.77
2023-01-27T03:48:51.740Z,1.13
2023-01-27T03:51:19.629Z,1.90
2023-01-27T03:53:47.037Z,1.40
2023-01-27T03:56:14.454Z,1.60
2023-01-27T03:58:42.529Z,1.90
2023-01-27T04:01:14.494Z,1.85
2023-01-27T04:03:59.398Z,1.75
2023-01-27T04:06:46.510Z,1.50
2023-01-27T04:09:14.375Z,1.40
2023-01-27T04:11:57.875Z,1.70
2023-01-27T04:14:26.814Z,1.50
2023-01-27T04:16:54.784Z,1.60
2023-01-27T04:19:22.166Z,1.60
2023-01-27T04:21:50.849Z,1.75
2023-01-27T04:24:22.532Z,1.60
2023-01-27T04:26:51.460Z,1.50
2023-01-27T04:29:19.230Z,1.52
2023-01-27T04:31:46.627Z,1.70
2023-01-27T04:34:14.304Z,1.75
2023-01-27T04:36:41.897Z,1.80
2023-01-27T04:39:10.663Z,1.92
2023-01-27T04:41:38.045Z,2.00
2023-01-27T04:44:05.721Z,1.73
2023-01-27T04:46:33.166Z,2.38
2023-01-27T04:49:00.604Z,2.40
2023-01-27T04:51:28.142Z,1.98
2023-01-27T04:53:55.530Z,1.90
2023-01-27T04:56:26.181Z,2.10
2023-01-27T04:58:53.578Z,2.05
2023-01-27T05:01:21.164Z,2.55
2023-01-27T05:03:48.554Z,2.45
2023-01-27T05:06:15.967Z,2.20
2023-01-27T05:08:43.369Z,2.35
2023-01-27T05:11:10.874Z,2.35
2023-01-27T05:13:40.666Z,2.00
2023-01-27T05:16:09.509Z,1.90
2023-01-27T05:18:37.075Z,1.90
2023-01-27T05:21:04.944Z,2.05
2023-01-27T05:23:38.351Z,1.92
2023-01-27T05:26:07.093Z,1.58
2023-01-27T05:28:34.650Z,1.80
2023-01-27T05:31:04.761Z,1.50
2023-01-27T05:36:00.874Z,1.50
2023-01-27T05:38:28.296Z,1.55
2023-01-27T05:40:57.357Z,1.70
2023-01-27T05:43:25.241Z,1.42
2023-01-27T05:45:52.619Z,1.30
2023-01-27T05:48:21.301Z,1.27
2023-01-27T05:50:55.580Z,1.20
2023-01-27T05:53:23.805Z,1.30
2023-01-27T05:55:51.463Z,1.40
2023-01-27T05:58:18.874Z,1.30
2023-01-27T06:00:46.341Z,1.20
2023-01-27T06:03:13.729Z,1.17
2023-01-27T06:05:50.206Z,1.45
2023-01-27T06:08:17.624Z,1.17
2023-01-27T06:10:45.067Z,1.23
2023-01-27T06:13:12.785Z,1.05
2023-01-27T06:15:44.058Z,1.20
2023-01-27T06:18:11.718Z,1.00
2023-01-27T06:20:39.473Z,1.00
2023-01-27T06:23:08.311Z,0.98
2023-01-27T06:25:39.187Z,0.90
2023-01-27T06:28:08.039Z,0.88
2023-01-27T06:30:35.573Z,0.90
2023-01-27T06:33:02.994Z,1.00
2023-01-27T06:35:30.462Z,0.90
2023-01-27T06:37:58.852Z,1.00
2023-01-27T06:40:27.543Z,0.90
2023-01-27T06:42:54.957Z,0.90
2023-01-27T06:45:22.360Z,0.98
2023-01-27T06:47:54.929Z,0.90
2023-01-27T06:50:22.298Z,0.95
2023-01-27T06:52:49.767Z,1.10
2023-01-27T06:55:17.133Z,1.00
2023-01-27T06:57:47.735Z,1.00
2023-01-27T07:00:15.985Z,1.02
2023-01-27T07:02:43.678Z,1.75
2023-01-27T07:05:11.144Z,3.60
2023-01-27T07:07:38.700Z,2.95
2023-01-27T07:10:07.016Z,2.47
2023-01-27T07:12:37.577Z,1.98
2023-01-27T07:15:07.573Z,2.05
2023-01-27T07:17:34.983Z,2.05
2023-01-27T07:20:02.639Z,1.83
2023-01-27T07:22:30.015Z,1.90
2023-01-27T07:24:57.410Z,1.58
2023-01-27T07:27:24.906Z,1.95
2023-01-27T07:29:52.365Z,1.70
2023-01-27T07:32:21.123Z,1.60
2023-01-27T07:34:48.481Z,1.70
2023-01-27T07:37:15.879Z,1.60
2023-01-27T07:39:43.317Z,1.70
2023-01-27T07:42:10.835Z,1.73
2023-01-27T07:44:38.205Z,1.20
2023-01-27T07:47:06.555Z,1.40
2023-01-27T07:49:35.995Z,1.23
2023-01-27T07:52:03.398Z,1.50
2023-01-27T07:54:30.763Z,1.33
2023-01-27T07:57:00.312Z,1.10
2023-01-27T07:59:27.690Z,0.90
2023-01-27T08:01:55.119Z,1.00
2023-01-27T08:06:44.449Z,1.08
2023-01-27T08:09:11.865Z,1.20
2023-01-27T08:11:39.246Z,1.20
2023-01-27T08:14:06.612Z,0.90
2023-01-27T08:16:34.028Z,0.88
2023-01-27T08:19:01.450Z,0.90
2023-01-27T08:21:32.670Z,1.00
2023-01-27T08:24:01.457Z,0.80
2023-01-27T08:26:29.082Z,1.23
2023-01-27T08:28:56.452Z,0.98
2023-01-27T08:31:23.865Z,1.17
2023-01-27T08:33:52.447Z,1.00
2023-01-27T08:36:20.209Z,1.27
2023-01-27T08:38:49.143Z,0.93
2023-01-27T08:41:19.598Z,1.00
2023-01-27T08:43:47.006Z,1.00
2023-01-27T08:46:14.666Z,0.98
2023-01-27T08:48:42.174Z,0.80
2023-01-27T08:51:10.192Z,1.13
2023-01-27T08:53:37.826Z,1.02
2023-01-27T08:56:07.136Z,1.30
2023-01-27T08:58:35.861Z,1.30
2023-01-27T09:01:03.325Z,1.00
2023-01-27T09:03:30.741Z,1.58
2023-01-27T09:05:58.145Z,1.50
2023-01-27T09:08:25.646Z,1.40
2023-01-27T09:10:53.015Z,1.35
2023-01-27T09:13:22.175Z,1.50
2023-01-27T09:15:51.773Z,1.42
2023-01-27T09:18:19.241Z,1.33
2023-01-27T09:20:46.646Z,1.13
2023-01-27T09:23:14.054Z,1.35
2023-01-27T09:25:41.443Z,1.30
2023-01-27T09:28:16.694Z,1.50
2023-01-27T09:30:46.238Z,1.58
2023-01-27T09:33:18.013Z,1.42
2023-01-27T09:35:46.467Z,1.42
2023-01-27T09:38:14.198Z,1.67
2023-01-27T09:40:50.132Z,1.42
2023-01-27T09:43:29.175Z,1.23
2023-01-27T09:46:19.835Z,1.50
2023-01-27T09:48:57.244Z,1.40
2023-01-27T09:51:28.691Z,1.60
2023-01-27T09:54:21.355Z,1.42
2023-01-27T09:56:53.342Z,1.40
2023-01-27T09:59:33.666Z,1.30
2023-01-27T10:02:06.358Z,1.20
2023-01-27T10:04:57.523Z,1.17
2023-01-27T10:07:36.730Z,1.30
2023-01-27T10:10:09.472Z,1.10
2023-01-27T10:12:48.321Z,1.40
2023-01-27T10:15:21.737Z,1.30
2023-01-27T10:17:53.462Z,1.00
2023-01-27T10:20:27.638Z,1.35
2023-01-27T10:23:01.969Z,1.17
2023-01-27T10:25:34.533Z,1.20
2023-01-27T10:28:04.131Z,1.10
2023-01-27T10:30:34.985Z,1.17
2023-01-27T10:33:07.853Z,0.80
2023-01-27T10:35:39.139Z,1.02
2023-01-27T10:38:09.341Z,1.02
2023-01-27T10:43:07.239Z,0.80
2023-01-27T10:45:38.101Z,0.90
2023-01-27T10:48:14.495Z,0.90
2023-01-27T10:50:44.236Z,0.85
2023-01-27T10:53:13.155Z,1.10
2023-01-27T10:55:42.040Z,1.02
2023-01-27T10:58:12.649Z,1.10
2023-01-27T11:01:17.714Z,1.00
2023-01-27T11:03:30.864Z,0.90
2023-01-27T11:06:02.168Z,0.80
2023-01-27T11:08:31.608Z,0.90
2023-01-27T11:11:18.382Z,0.80
2023-01-27T11:13:46.242Z,0.80
2023-01-27T11:16:15.858Z,0.65
2023-01-27T11:18:45.922Z,0.90
2023-01-27T11:21:18.506Z,0.80
2023-01-27T11:23:48.842Z,0.73
2023-01-27T11:26:23.807Z,0.70
2023-01-27T11:28:52.767Z,0.80
2023-01-27T11:31:29.426Z,0.70
2023-01-27T11:33:58.566Z,0.85
2023-01-27T11:36:27.297Z,0.70
2023-01-27T11:38:54.778Z,0.77
2023-01-27T11:41:22.267Z,0.75
2023-01-27T11:43:49.685Z,0.75
2023-01-27T11:46:20.144Z,0.90
2023-01-27T11:48:49.303Z,0.75
2023-01-27T11:51:20.594Z,0.60
2023-01-27T11:53:51.500Z,0.80
2023-01-27T11:56:19.653Z,0.90
2023-01-27T11:58:50.359Z,0.80
2023-01-27T12:01:19.001Z,0.70
2023-01-27T12:03:50.732Z,0.70
2023-01-27T12:06:27.480Z,0.90
2023-01-27T12:08:56.184Z,0.80
2023-01-27T12:11:24.811Z,0.80
2023-01-27T12:13:54.325Z,0.80
2023-01-27T12:16:22.235Z,0.80
2023-01-27T12:18:53.329Z,0.70
2023-01-27T12:21:20.753Z,0.80
2023-01-27T12:23:49.195Z,0.80
2023-01-27T12:26:17.900Z,0.88
2023-01-27T12:28:49.827Z,0.80
2023-01-27T12:31:21.449Z,0.80
2023-01-27T12:33:52.163Z,0.80
2023-01-27T12:36:22.435Z,0.60
2023-01-27T12:38:51.578Z,0.80
2023-01-27T12:41:23.830Z,0.90
2023-01-27T12:43:52.395Z,0.90
2023-01-27T12:46:22.187Z,0.90
2023-01-27T12:48:50.891Z,0.80
2023-01-27T12:51:20.183Z,0.90
2023-01-27T12:53:49.275Z,0.70
2023-01-27T12:56:17.761Z,0.80
2023-01-27T12:58:46.608Z,0.85
2023-01-27T13:01:41.096Z,0.93
2023-01-27T13:04:12.707Z,0.77
2023-01-27T13:06:43.535Z,0.85
2023-01-27T13:09:28.082Z,0.80
2023-01-27T13:11:55.942Z,0.77
2023-01-27T13:14:24.676Z,0.70
2023-01-27T13:16:53.064Z,0.95
2023-01-27T13:19:20.629Z,0.70
2023-01-27T13:21:49.944Z,0.70
2023-01-27T13:24:21.636Z,0.70
2023-01-27T13:26:49.550Z,0.60
2023-01-27T13:29:17.541Z,0.93
2023-01-27T13:31:49.018Z,0.80
2023-01-27T13:34:22.205Z,0.80
2023-01-27T13:36:50.539Z,1.00
2023-01-27T13:39:19.582Z,0.98
2023-01-27T13:41:48.602Z,0.90
2023-01-27T13:44:21.107Z,0.80
2023-01-27T13:46:49.832Z,0.70
2023-01-27T13:49:25.159Z,0.90
2023-01-27T13:51:52.542Z,0.90
2023-01-27T13:54:23.285Z,0.70
2023-01-27T13:56:58.653Z,0.82
2023-01-27T13:59:36.679Z,0.90
2023-01-27T14:02:15.733Z,1.00
2023-01-27T14:04:56.926Z,0.90
2023-01-27T14:07:26.413Z,1.20
2023-01-27T14:10:00.294Z,1.27
2023-01-27T14:12:35.705Z,1.20
2023-01-27T14:15:07.415Z,1.30
2023-01-27T14:17:39.679Z,1.35
2023-01-27T14:20:19.205Z,1.00
2023-01-27T14:22:50.958Z,1.30
2023-01-27T14:25:22.326Z,1.00
2023-01-27T14:27:51.551Z,1.30
2023-01-27T14:30:20.965Z,1.07
2023-01-27T14:32:52.437Z,1.17
2023-01-27T14:35:27.651Z,1.00
2023-01-27T14:37:59.291Z,0.93
2023-01-27T14:40:28.883Z,1.15
2023-01-27T14:43:02.921Z,0.85
2023-01-27T14:45:32.736Z,1.10
2023-01-27T14:48:03.878Z,1.13
2023-01-27T14:50:34.321Z,1.05
2023-01-27T14:53:09.009Z,1.23
2023-01-27T14:55:41.450Z,1.20
2023-01-27T14:58:17.498Z,1.33
2023-01-27T15:00:47.782Z,1.30
2023-01-27T15:03:41.136Z,1.23
2023-01-27T15:06:11.627Z,1.25
2023-01-27T15:08:41.166Z,1.00
2023-01-27T15:11:22.696Z,1.10
2023-01-27T15:13:56.610Z,1.30
2023-01-27T15:16:33.605Z,1.33
2023-01-27T15:19:33.845Z,1.42
2023-01-27T15:25:27.608Z,1.20
2023-01-27T15:27:54.992Z,1.35
2023-01-27T15:30:23.715Z,0.85
2023-01-27T15:32:51.128Z,1.17
2023-01-27T15:35:41.062Z,1.20
2023-01-27T15:38:21.752Z,1.33
2023-01-27T15:41:01.571Z,0.90
2023-01-27T15:43:30.096Z,1.40
2023-01-27T15:45:58.161Z,1.40
2023-01-27T15:48:27.150Z,1.17
2023-01-27T15:50:57.098Z,1.40
2023-01-27T15:53:29.955Z,1.48
2023-01-27T15:55:57.489Z,1.42
2023-01-27T15:58:28.321Z,1.30
2023-01-27T16:00:56.206Z,1.15
2023-01-27T16:03:26.720Z,1.25
2023-01-27T16:05:57.118Z,1.55
2023-01-27T16:08:24.579Z,1.27
2023-01-27T16:10:51.982Z,1.25
2023-01-27T16:13:23.493Z,1.27
2023-01-27T16:15:51.266Z,1.50
2023-01-27T16:18:26.668Z,1.70
2023-01-27T16:21:00.835Z,1.45
2023-01-27T16:23:39.663Z,1.50
2023-01-27T16:26:18.469Z,1.40
2023-01-27T16:28:47.747Z,1.55
2023-01-27T16:31:17.316Z,2.03
2023-01-27T16:33:45.332Z,1.83
2023-01-27T16:36:20.421Z,1.40
2023-01-27T16:38:47.856Z,1.70
2023-01-27T16:41:17.811Z,1.80
2023-01-27T16:43:46.349Z,1.77
2023-01-27T16:46:24.986Z,2.00
2023-01-27T16:48:52.358Z,1.65
2023-01-27T16:51:21.751Z,1.67
2023-01-27T16:53:49.873Z,1.77
2023-01-27T16:56:20.782Z,1.73
2023-01-27T16:58:50.076Z,1.88
2023-01-27T17:01:24.144Z,1.67
2023-01-27T17:03:51.608Z,1.80
2023-01-27T17:06:18.994Z,1.85
2023-01-27T17:08:48.452Z,1.80
2023-01-27T17:11:18.636Z,1.77
2023-01-27T17:16:20.804Z,1.90
2023-01-27T17:18:52.763Z,1.60
2023-01-27T17:21:27.785Z,1.90
2023-01-27T17:23:59.953Z,1.92
2023-01-27T17:26:27.337Z,1.85
2023-01-27T17:28:54.715Z,1.90
2023-01-27T17:31:23.059Z,1.88
2023-01-27T17:33:50.990Z,1.77
2023-01-27T17:36:18.372Z,2.10
2023-01-27T17:38:47.166Z,1.58
2023-01-27T17:41:26.266Z,1.90
2023-01-27T17:43:53.747Z,1.77
2023-01-27T17:46:21.728Z,1.80
2023-01-27T17:48:52.065Z,1.98
2023-01-27T17:51:20.846Z,1.77
2023-01-27T17:53:48.234Z,1.90
2023-01-27T17:56:16.592Z,1.83
2023-01-27T17:58:45.865Z,1.40
2023-01-27T18:01:13.947Z,1.80
2023-01-27T18:03:41.357Z,1.55
2023-01-27T18:06:11.107Z,1.50
2023-01-27T18:08:38.527Z,1.60
2023-01-27T18:11:09.662Z,1.58
2023-01-27T18:13:38.024Z,1.50
2023-01-27T18:16:14.101Z,1.65
2023-01-27T18:18:41.532Z,1.50
2023-01-27T18:21:15.883Z,1.40
2023-01-27T18:23:44.607Z,1.40
2023-01-27T18:26:16.256Z,1.50
2023-01-27T18:28:43.636Z,1.30
2023-01-27T18:31:17.815Z,1.35
2023-01-27T18:33:46.295Z,1.55
2023-01-27T18:36:22.097Z,1.60
2023-01-27T18:38:50.767Z,1.83
2023-01-27T18:41:23.762Z,1.80
2023-01-27T18:43:51.151Z,1.70
2023-01-27T18:46:19.888Z,1.98
2023-01-27T18:48:47.383Z,1.60
2023-01-27T18:51:15.691Z,1.90
2023-01-27T18:53:43.195Z,1.60
2023-01-27T18:56:11.031Z,1.77
2023-01-27T18:58:38.977Z,1.70
2023-01-27T19:01:07.775Z,1.52
2023-01-27T19:03:38.763Z,1.80
2023-01-27T19:06:06.907Z,1.70
2023-01-27T19:08:34.276Z,1.70
2023-01-27T19:11:01.671Z,1.65
2023-01-27T19:13:29.082Z,1.67
2023-01-27T19:15:56.884Z,1.85
2023-01-27T19:18:26.282Z,1.80
2023-01-27T19:20:55.119Z,1.80
2023-01-27T19:23:22.706Z,1.67
2023-01-27T19:25:50.648Z,2.00
2023-01-27T19:28:20.633Z,1.83
2023-01-27T19:30:48.055Z,1.85
2023-01-27T19:33:19.150Z,1.80
2023-01-27T19:35:47.515Z,1.50
2023-01-27T19:38:16.206Z,1.63
2023-01-27T19:40:43.680Z,1.90
2023-01-27T19:43:13.083Z,1.65
2023-01-27T19:45:40.524Z,2.20
2023-01-27T19:48:12.300Z,1.80
2023-01-27T19:50:39.703Z,1.90
2023-01-27T19:53:07.079Z,2.00
2023-01-27T19:55:35.797Z,1.80
2023-01-27T19:58:03.196Z,1.80
2023-01-27T20:00:32.391Z,1.60
2023-01-27T20:02:59.870Z,1.65
2023-01-27T20:05:28.139Z,1.70
2023-01-27T20:07:56.576Z,1.90
2023-01-27T20:10:26.617Z,1.80
2023-01-27T20:12:58.944Z,1.50
2023-01-27T20:15:27.315Z,1.60
2023-01-27T20:17:54.946Z,1.67
2023-01-27T20:20:22.668Z,1.35
2023-01-27T20:22:50.365Z,1.52
2023-01-27T20:25:18.997Z,1.55
2023-01-27T20:27:48.350Z,1.45
2023-01-27T20:30:17.789Z,1.27
2023-01-27T20:32:45.363Z,1.40
2023-01-27T20:35:13.688Z,1.70
2023-01-27T20:37:41.339Z,1.67
2023-01-27T20:40:09.925Z,1.40
2023-01-27T20:42:37.324Z,1.75
2023-01-27T20:45:05.057Z,1.75
2023-01-27T20:47:33.768Z,1.40
2023-01-27T20:50:01.144Z,1.48
2023-01-27T20:52:28.990Z,1.63
2023-01-27T20:54:56.399Z,1.55
2023-01-27T20:57:25.268Z,1.20
2023-01-27T20:59:52.645Z,1.38
2023-01-27T21:02:20.126Z,1.30
2023-01-27T21:04:48.957Z,1.35
2023-01-27T21:07:16.421Z,1.35
2023-01-27T21:09:43.804Z,1.65
2023-01-27T21:12:11.182Z,1.45
2023-01-27T21:14:40.019Z,1.60
2023-01-27T21:17:07.535Z,1.60
2023-01-27T21:19:35.373Z,1.30
2023-01-27T21:22:04.087Z,1.33
2023-01-27T21:24:31.768Z,1.50
2023-01-27T21:26:59.210Z,1.50
2023-01-27T21:29:26.717Z,1.35
2023-01-27T21:31:54.145Z,1.50
2023-01-27T21:34:21.583Z,1.52
2023-01-27T21:36:48.985Z,1.55
2023-01-27T21:39:17.670Z,1.50
2023-01-27T21:42:02.526Z,1.45
2023-01-27T21:44:50.083Z,1.48
2023-01-27T21:47:18.230Z,1.40
2023-01-27T21:50:01.657Z,1.30
2023-01-27T21:52:31.909Z,1.20
2023-01-27T21:57:27.863Z,1.30
2023-01-27T21:59:55.375Z,1.10
2023-01-27T22:02:22.896Z,1.30
2023-01-27T22:04:50.295Z,1.20
2023-01-27T22:07:18.150Z,1.30
2023-01-27T22:09:45.624Z,1.30
2023-01-27T22:12:15.234Z,1.25
2023-01-27T22:14:42.761Z,1.30
2023-01-27T22:17:10.152Z,1.17
2023-01-27T22:19:37.670Z,1.25
2023-01-27T22:22:05.074Z,1.13
2023-01-27T22:24:32.472Z,1.10
2023-01-27T22:26:59.867Z,1.20
2023-01-27T22:29:28.559Z,1.15
2023-01-27T22:31:56.045Z,1.10
2023-01-27T22:34:23.431Z,1.38
2023-01-27T22:36:51.748Z,1.17
2023-01-27T22:39:19.480Z,1.10
2023-01-27T22:41:46.968Z,1.25
2023-01-27T22:44:14.446Z,1.20
2023-01-27T22:46:43.485Z,1.23
2023-01-27T22:49:10.963Z,1.58
2023-01-27T22:51:38.638Z,1.20
2023-01-27T22:54:06.177Z,1.10
2023-01-27T22:56:33.607Z,1.50
2023-01-27T22:59:01.287Z,1.30
2023-01-27T23:01:28.705Z,1.10
2023-01-27T23:03:57.419Z,1.17
2023-01-27T23:06:24.813Z,1.30
2023-01-27T23:08:52.180Z,1.23
2023-01-27T23:11:19.569Z,1.25
2023-01-27T23:13:46.967Z,1.27
2023-01-27T23:16:14.403Z,1.17
2023-01-27T23:18:41.831Z,1.40
2023-01-27T23:21:11.658Z,1.20
2023-01-27T23:23:39.050Z,1.13
2023-01-27T23:26:07.227Z,1.30
2023-01-27T23:28:34.655Z,1.38
2023-01-27T23:31:02.175Z,1.58
2023-01-27T23:33:34.437Z,1.30
2023-01-27T23:36:01.853Z,1.30
2023-01-27T23:38:33.373Z,1.40
2023-01-27T23:41:01.979Z,1.30
2023-01-27T23:43:30.786Z,1.27
2023-01-27T23:45:58.267Z,1.23
2023-01-27T23:48:25.741Z,1.25
2023-01-27T23:50:53.116Z,1.50
2023-01-27T23:53:20.517Z,1.70
2023-01-27T23:55:56.821Z,1.35
2023-01-27T23:58:24.222Z,1.23
